sensor_id;sensor_type;location;lat;lon;timestamp;temperature;humidity
9820;DHT22;4949;48.482;9.206;2023-03-25T00:04:04;10.90;63.40
9820;DHT22;4949;48.482;9.206;2023-03-25T00:09:05;11.00;62.90
9820;DHT22;4949;48.482;9.206;2023-03-25T00:14:09;10.90;64.40
9820;DHT22;4949;48.482;9.206;2023-03-25T00:19:16;10.60;68.40
9820;DHT22;4949;48.482;9.206;2023-03-25T00:24:19;10.10;73.70
9820;DHT22;4949;48.482;9.206;2023-03-25T00:29:20;10.30;72.80
9820;DHT22;4949;48.482;9.206;2023-03-25T00:34:23;9.80;73.10
9820;DHT22;4949;48.482;9.206;2023-03-25T00:39:32;9.60;72.20
9820;DHT22;4949;48.482;9.206;2023-03-25T00:44:33;9.50;73.20
9820;DHT22;4949;48.482;9.206;2023-03-25T00:49:35;9.40;72.90
9820;DHT22;4949;48.482;9.206;2023-03-25T00:54:36;9.50;72.70
9820;DHT22;4949;48.482;9.206;2023-03-25T00:59:38;9.40;73.60
9820;DHT22;4949;48.482;9.206;2023-03-25T01:04:41;9.40;73.20
9820;DHT22;4949;48.482;9.206;2023-03-25T01:09:46;9.40;72.70
9820;DHT22;4949;48.482;9.206;2023-03-25T01:14:47;9.30;72.50
9820;DHT22;4949;48.482;9.206;2023-03-25T01:19:50;9.20;73.20
9820;DHT22;4949;48.482;9.206;2023-03-25T01:24:50;9.30;74.20
9820;DHT22;4949;48.482;9.206;2023-03-25T01:29:51;9.10;74.40
9820;DHT22;4949;48.482;9.206;2023-03-25T01:34:53;9.20;74.60
9820;DHT22;4949;48.482;9.206;2023-03-25T01:39:54;9.20;74.80
9820;DHT22;4949;48.482;9.206;2023-03-25T01:45:22;9.20;74.70
9820;DHT22;4949;48.482;9.206;2023-03-25T01:50:26;9.20;74.40
9820;DHT22;4949;48.482;9.206;2023-03-25T01:55:32;9.20;74.60
9820;DHT22;4949;48.482;9.206;2023-03-25T02:00:34;9.10;76.40
9820;DHT22;4949;48.482;9.206;2023-03-25T02:05:42;9.00;78.50
9820;DHT22;4949;48.482;9.206;2023-03-25T02:10:46;9.00;76.70
9820;DHT22;4949;48.482;9.206;2023-03-25T02:16:40;8.80;76.90
9820;DHT22;4949;48.482;9.206;2023-03-25T02:32:45;8.60;75.70
9820;DHT22;4949;48.482;9.206;2023-03-25T02:43:53;8.50;75.60
9820;DHT22;4949;48.482;9.206;2023-03-25T02:49:08;8.40;75.50
9820;DHT22;4949;48.482;9.206;2023-03-25T02:54:16;8.40;75.50
9820;DHT22;4949;48.482;9.206;2023-03-25T02:59:19;8.40;76.00
9820;DHT22;4949;48.482;9.206;2023-03-25T03:04:21;8.40;77.40
9820;DHT22;4949;48.482;9.206;2023-03-25T03:09:38;8.40;77.50
9820;DHT22;4949;48.482;9.206;2023-03-25T03:36:38;7.90;79.30
9820;DHT22;4949;48.482;9.206;2023-03-25T03:41:42;8.00;80.00
9820;DHT22;4949;48.482;9.206;2023-03-25T03:46:58;8.20;79.30
9820;DHT22;4949;48.482;9.206;2023-03-25T03:52:12;8.20;78.60
9820;DHT22;4949;48.482;9.206;2023-03-25T03:57:54;8.20;77.90
9820;DHT22;4949;48.482;9.206;2023-03-25T04:02:56;8.10;77.70
9820;DHT22;4949;48.482;9.206;2023-03-25T04:08:12;8.20;77.00
9820;DHT22;4949;48.482;9.206;2023-03-25T04:13:23;8.20;77.20
9820;DHT22;4949;48.482;9.206;2023-03-25T04:18:33;8.30;77.30
9820;DHT22;4949;48.482;9.206;2023-03-25T04:23:34;8.30;77.90
9820;DHT22;4949;48.482;9.206;2023-03-25T04:28:37;8.30;77.50
9820;DHT22;4949;48.482;9.206;2023-03-25T04:33:44;8.30;77.70
9820;DHT22;4949;48.482;9.206;2023-03-25T04:38:49;8.40;76.50
9820;DHT22;4949;48.482;9.206;2023-03-25T04:43:52;8.40;76.00
9820;DHT22;4949;48.482;9.206;2023-03-25T04:48:53;8.30;75.80
9820;DHT22;4949;48.482;9.206;2023-03-25T04:53:56;8.50;76.60
9820;DHT22;4949;48.482;9.206;2023-03-25T04:58:56;8.30;75.00
9820;DHT22;4949;48.482;9.206;2023-03-25T05:04:04;8.30;74.40
9820;DHT22;4949;48.482;9.206;2023-03-25T05:09:06;8.50;74.70
9820;DHT22;4949;48.482;9.206;2023-03-25T05:14:10;8.30;74.20
9820;DHT22;4949;48.482;9.206;2023-03-25T05:19:15;8.40;74.60
9820;DHT22;4949;48.482;9.206;2023-03-25T05:24:18;8.30;74.00
9820;DHT22;4949;48.482;9.206;2023-03-25T05:29:21;8.40;73.90
9820;DHT22;4949;48.482;9.206;2023-03-25T05:34:22;8.30;74.10
9820;DHT22;4949;48.482;9.206;2023-03-25T05:39:25;8.30;73.70
9820;DHT22;4949;48.482;9.206;2023-03-25T05:44:25;8.30;71.90
9820;DHT22;4949;48.482;9.206;2023-03-25T05:49:27;8.40;71.70
9820;DHT22;4949;48.482;9.206;2023-03-25T05:54:27;8.30;71.10
9820;DHT22;4949;48.482;9.206;2023-03-25T05:59:31;8.40;71.00
9820;DHT22;4949;48.482;9.206;2023-03-25T06:04:37;8.50;69.60
9820;DHT22;4949;48.482;9.206;2023-03-25T06:09:41;8.50;69.50
9820;DHT22;4949;48.482;9.206;2023-03-25T06:14:51;8.50;69.40
9820;DHT22;4949;48.482;9.206;2023-03-25T06:19:54;8.70;70.00
9820;DHT22;4949;48.482;9.206;2023-03-25T06:24:55;8.50;70.50
9820;DHT22;4949;48.482;9.206;2023-03-25T06:29:55;8.60;70.60
9820;DHT22;4949;48.482;9.206;2023-03-25T06:34:59;8.60;70.00
9820;DHT22;4949;48.482;9.206;2023-03-25T06:40:08;8.60;69.60
9820;DHT22;4949;48.482;9.206;2023-03-25T06:45:10;8.60;69.80
9820;DHT22;4949;48.482;9.206;2023-03-25T06:50:24;8.70;70.00
9820;DHT22;4949;48.482;9.206;2023-03-25T06:55:27;8.60;70.30
9820;DHT22;4949;48.482;9.206;2023-03-25T07:00:31;8.70;70.40
9820;DHT22;4949;48.482;9.206;2023-03-25T07:05:32;8.70;70.90
9820;DHT22;4949;48.482;9.206;2023-03-25T07:10:36;8.80;70.10
9820;DHT22;4949;48.482;9.206;2023-03-25T07:15:36;8.80;69.80
9820;DHT22;4949;48.482;9.206;2023-03-25T07:20:38;8.90;69.40
9820;DHT22;4949;48.482;9.206;2023-03-25T07:25:42;8.80;69.30
9820;DHT22;4949;48.482;9.206;2023-03-25T07:30:43;9.00;68.50
9820;DHT22;4949;48.482;9.206;2023-03-25T07:35:46;8.90;69.40
9820;DHT22;4949;48.482;9.206;2023-03-25T07:40:47;8.90;69.00
9820;DHT22;4949;48.482;9.206;2023-03-25T07:45:50;9.00;68.70
9820;DHT22;4949;48.482;9.206;2023-03-25T07:50:51;9.10;68.20
9820;DHT22;4949;48.482;9.206;2023-03-25T07:55:55;9.20;68.20
9820;DHT22;4949;48.482;9.206;2023-03-25T08:00:58;9.60;67.90
9820;DHT22;4949;48.482;9.206;2023-03-25T08:06:01;9.50;67.20
9820;DHT22;4949;48.482;9.206;2023-03-25T08:11:03;9.40;67.20
9820;DHT22;4949;48.482;9.206;2023-03-25T08:16:10;9.60;67.10
9820;DHT22;4949;48.482;9.206;2023-03-25T08:21:12;9.80;66.00
9820;DHT22;4949;48.482;9.206;2023-03-25T08:26:13;9.80;65.90
9820;DHT22;4949;48.482;9.206;2023-03-25T08:31:19;9.80;64.70
9820;DHT22;4949;48.482;9.206;2023-03-25T08:36:21;9.90;64.70
9820;DHT22;4949;48.482;9.206;2023-03-25T08:41:23;9.90;64.30
9820;DHT22;4949;48.482;9.206;2023-03-25T08:46:24;9.90;65.30
9820;DHT22;4949;48.482;9.206;2023-03-25T08:51:25;10.10;64.00
9820;DHT22;4949;48.482;9.206;2023-03-25T08:56:28;10.20;64.20
9820;DHT22;4949;48.482;9.206;2023-03-25T09:01:29;10.40;62.90
9820;DHT22;4949;48.482;9.206;2023-03-25T09:06:34;10.30;62.40
9820;DHT22;4949;48.482;9.206;2023-03-25T09:11:36;10.50;61.40
9820;DHT22;4949;48.482;9.206;2023-03-25T09:16:37;10.40;60.80
9820;DHT22;4949;48.482;9.206;2023-03-25T09:21:38;10.80;60.30
9820;DHT22;4949;48.482;9.206;2023-03-25T09:26:41;10.70;61.30
9820;DHT22;4949;48.482;9.206;2023-03-25T09:31:42;10.80;62.20
9820;DHT22;4949;48.482;9.206;2023-03-25T09:36:43;11.00;60.80
9820;DHT22;4949;48.482;9.206;2023-03-25T09:47:08;11.30;59.50
9820;DHT22;4949;48.482;9.206;2023-03-25T09:52:22;11.40;59.80
9820;DHT22;4949;48.482;9.206;2023-03-25T09:57:43;11.20;60.00
9820;DHT22;4949;48.482;9.206;2023-03-25T10:13:53;11.80;58.30
9820;DHT22;4949;48.482;9.206;2023-03-25T10:19:03;11.70;59.20
9820;DHT22;4949;48.482;9.206;2023-03-25T10:24:21;11.50;60.00
9820;DHT22;4949;48.482;9.206;2023-03-25T10:34:39;11.60;60.00
9820;DHT22;4949;48.482;9.206;2023-03-25T10:39:46;11.60;60.00
9820;DHT22;4949;48.482;9.206;2023-03-25T10:44:49;11.30;65.60
9820;DHT22;4949;48.482;9.206;2023-03-25T10:49:53;10.70;70.40
9820;DHT22;4949;48.482;9.206;2023-03-25T10:54:55;10.60;70.80
9820;DHT22;4949;48.482;9.206;2023-03-25T11:00:14;10.60;70.50
9820;DHT22;4949;48.482;9.206;2023-03-25T11:05:21;10.90;71.10
9820;DHT22;4949;48.482;9.206;2023-03-25T11:10:31;11.30;67.90
9820;DHT22;4949;48.482;9.206;2023-03-25T11:15:37;11.60;61.70
9820;DHT22;4949;48.482;9.206;2023-03-25T11:20:46;11.50;59.50
9820;DHT22;4949;48.482;9.206;2023-03-25T11:25:49;11.90;57.20
9820;DHT22;4949;48.482;9.206;2023-03-25T11:41:17;11.70;56.10
9820;DHT22;4949;48.482;9.206;2023-03-25T11:46:20;11.70;56.60
9820;DHT22;4949;48.482;9.206;2023-03-25T11:51:28;11.70;55.00
9820;DHT22;4949;48.482;9.206;2023-03-25T11:56:37;11.70;55.90
9820;DHT22;4949;48.482;9.206;2023-03-25T12:01:45;11.60;55.80
9820;DHT22;4949;48.482;9.206;2023-03-25T12:07:08;11.70;56.80
9820;DHT22;4949;48.482;9.206;2023-03-25T12:12:25;12.20;56.00
9820;DHT22;4949;48.482;9.206;2023-03-25T12:33:56;12.60;54.20
9820;DHT22;4949;48.482;9.206;2023-03-25T13:05:57;12.70;56.00
9820;DHT22;4949;48.482;9.206;2023-03-25T13:11:14;13.10;55.50
9820;DHT22;4949;48.482;9.206;2023-03-25T13:16:23;12.90;55.40
9820;DHT22;4949;48.482;9.206;2023-03-25T13:21:29;12.70;56.20
9820;DHT22;4949;48.482;9.206;2023-03-25T13:26:34;12.50;55.60
9820;DHT22;4949;48.482;9.206;2023-03-25T13:31:38;12.10;56.60
9820;DHT22;4949;48.482;9.206;2023-03-25T13:37:13;11.50;59.30
9820;DHT22;4949;48.482;9.206;2023-03-25T13:47:40;11.30;69.30
9820;DHT22;4949;48.482;9.206;2023-03-25T13:52:49;11.90;63.20
9820;DHT22;4949;48.482;9.206;2023-03-25T14:03:56;12.70;57.10
9820;DHT22;4949;48.482;9.206;2023-03-25T14:14:23;13.00;56.30
9820;DHT22;4949;48.482;9.206;2023-03-25T14:19:34;12.70;56.80
9820;DHT22;4949;48.482;9.206;2023-03-25T14:24:39;12.30;56.60
9820;DHT22;4949;48.482;9.206;2023-03-25T14:29:42;12.20;57.00
9820;DHT22;4949;48.482;9.206;2023-03-25T14:34:48;12.20;56.70
9820;DHT22;4949;48.482;9.206;2023-03-25T14:39:51;12.70;55.60
9820;DHT22;4949;48.482;9.206;2023-03-25T14:50:32;13.40;52.80
9820;DHT22;4949;48.482;9.206;2023-03-25T14:55:41;13.40;52.50
9820;DHT22;4949;48.482;9.206;2023-03-25T15:00:59;13.50;52.50
9820;DHT22;4949;48.482;9.206;2023-03-25T15:06:05;13.70;52.30
9820;DHT22;4949;48.482;9.206;2023-03-25T15:11:12;13.90;52.20
9820;DHT22;4949;48.482;9.206;2023-03-25T15:16:48;13.40;53.90
9820;DHT22;4949;48.482;9.206;2023-03-25T15:27:33;12.70;57.00
9820;DHT22;4949;48.482;9.206;2023-03-25T15:43:53;12.40;59.00
9820;DHT22;4949;48.482;9.206;2023-03-25T15:49:26;12.40;58.40
9820;DHT22;4949;48.482;9.206;2023-03-25T16:00:02;13.60;57.20
9820;DHT22;4949;48.482;9.206;2023-03-25T16:05:16;13.80;55.40
9820;DHT22;4949;48.482;9.206;2023-03-25T16:10:25;14.10;55.70
9820;DHT22;4949;48.482;9.206;2023-03-25T16:15:32;13.90;55.10
9820;DHT22;4949;48.482;9.206;2023-03-25T16:20:37;13.90;54.80
9820;DHT22;4949;48.482;9.206;2023-03-25T16:25:40;14.00;54.50
9820;DHT22;4949;48.482;9.206;2023-03-25T16:30:49;13.80;54.90
9820;DHT22;4949;48.482;9.206;2023-03-25T16:36:02;13.70;55.20
9820;DHT22;4949;48.482;9.206;2023-03-25T16:41:14;13.60;55.90
9820;DHT22;4949;48.482;9.206;2023-03-25T16:46:16;13.60;56.00
9820;DHT22;4949;48.482;9.206;2023-03-25T16:51:24;13.60;56.20
9820;DHT22;4949;48.482;9.206;2023-03-25T16:56:37;13.80;55.80
9820;DHT22;4949;48.482;9.206;2023-03-25T17:01:41;13.90;55.60
9820;DHT22;4949;48.482;9.206;2023-03-25T17:06:50;14.00;55.10
9820;DHT22;4949;48.482;9.206;2023-03-25T17:11:56;14.00;55.30
9820;DHT22;4949;48.482;9.206;2023-03-25T17:16:58;13.70;55.40
9820;DHT22;4949;48.482;9.206;2023-03-25T17:22:16;13.70;55.50
9820;DHT22;4949;48.482;9.206;2023-03-25T17:27:33;13.50;55.10
9820;DHT22;4949;48.482;9.206;2023-03-25T17:32:40;13.10;55.30
9820;DHT22;4949;48.482;9.206;2023-03-25T17:37:48;12.70;55.10
9820;DHT22;4949;48.482;9.206;2023-03-25T17:42:52;12.60;55.00
9820;DHT22;4949;48.482;9.206;2023-03-25T17:47:54;12.70;53.80
9820;DHT22;4949;48.482;9.206;2023-03-25T17:52:54;12.50;53.80
9820;DHT22;4949;48.482;9.206;2023-03-25T17:57:57;12.30;52.80
9820;DHT22;4949;48.482;9.206;2023-03-25T18:02:58;12.20;53.00
9820;DHT22;4949;48.482;9.206;2023-03-25T18:07:59;12.30;52.90
9820;DHT22;4949;48.482;9.206;2023-03-25T18:13:07;12.10;54.00
9820;DHT22;4949;48.482;9.206;2023-03-25T18:18:17;11.90;55.10
9820;DHT22;4949;48.482;9.206;2023-03-25T18:23:25;11.70;56.30
9820;DHT22;4949;48.482;9.206;2023-03-25T18:28:27;11.40;57.80
9820;DHT22;4949;48.482;9.206;2023-03-25T18:33:28;11.20;61.10
9820;DHT22;4949;48.482;9.206;2023-03-25T18:38:33;11.00;63.00
9820;DHT22;4949;48.482;9.206;2023-03-25T18:43:38;10.90;63.40
9820;DHT22;4949;48.482;9.206;2023-03-25T18:48:42;11.00;63.80
9820;DHT22;4949;48.482;9.206;2023-03-25T18:53:43;10.80;65.30
9820;DHT22;4949;48.482;9.206;2023-03-25T18:58:44;10.90;66.20
9820;DHT22;4949;48.482;9.206;2023-03-25T19:03:47;10.50;68.40
9820;DHT22;4949;48.482;9.206;2023-03-25T19:08:49;10.50;68.00
9820;DHT22;4949;48.482;9.206;2023-03-25T19:13:52;10.40;66.70
9820;DHT22;4949;48.482;9.206;2023-03-25T19:18:54;10.30;66.40
9820;DHT22;4949;48.482;9.206;2023-03-25T19:23:56;10.40;66.60
9820;DHT22;4949;48.482;9.206;2023-03-25T19:28:56;10.50;70.80
9820;DHT22;4949;48.482;9.206;2023-03-25T19:33:57;10.80;65.80
9820;DHT22;4949;48.482;9.206;2023-03-25T19:38:59;10.90;64.40
9820;DHT22;4949;48.482;9.206;2023-03-25T19:44:07;10.70;64.60
9820;DHT22;4949;48.482;9.206;2023-03-25T19:49:08;10.60;64.40
9820;DHT22;4949;48.482;9.206;2023-03-25T19:54:09;10.40;64.60
9820;DHT22;4949;48.482;9.206;2023-03-25T19:59:14;10.60;64.40
9820;DHT22;4949;48.482;9.206;2023-03-25T20:04:16;10.60;63.90
9820;DHT22;4949;48.482;9.206;2023-03-25T20:09:20;10.50;64.40
9820;DHT22;4949;48.482;9.206;2023-03-25T20:14:21;10.60;64.90
9820;DHT22;4949;48.482;9.206;2023-03-25T20:19:26;10.50;65.90
9820;DHT22;4949;48.482;9.206;2023-03-25T20:24:29;10.50;66.60
9820;DHT22;4949;48.482;9.206;2023-03-25T20:29:31;10.30;68.50
9820;DHT22;4949;48.482;9.206;2023-03-25T20:34:34;10.10;69.50
9820;DHT22;4949;48.482;9.206;2023-03-25T20:39:37;10.10;69.50
9820;DHT22;4949;48.482;9.206;2023-03-25T20:44:39;10.10;69.50
9820;DHT22;4949;48.482;9.206;2023-03-25T20:49:40;10.20;69.60
9820;DHT22;4949;48.482;9.206;2023-03-25T20:54:41;10.30;68.70
9820;DHT22;4949;48.482;9.206;2023-03-25T20:59:42;10.20;68.80
9820;DHT22;4949;48.482;9.206;2023-03-25T21:04:46;10.20;69.10
9820;DHT22;4949;48.482;9.206;2023-03-25T21:09:47;10.10;69.50
9820;DHT22;4949;48.482;9.206;2023-03-25T21:14:49;10.00;69.00
9820;DHT22;4949;48.482;9.206;2023-03-25T21:19:53;10.00;69.60
9820;DHT22;4949;48.482;9.206;2023-03-25T21:24:54;9.90;72.00
9820;DHT22;4949;48.482;9.206;2023-03-25T21:29:54;9.70;72.70
9820;DHT22;4949;48.482;9.206;2023-03-25T21:34:58;9.40;74.00
9820;DHT22;4949;48.482;9.206;2023-03-25T21:40:00;9.60;73.30
9820;DHT22;4949;48.482;9.206;2023-03-25T21:45:02;9.60;71.60
9820;DHT22;4949;48.482;9.206;2023-03-25T21:50:04;9.50;71.40
9820;DHT22;4949;48.482;9.206;2023-03-25T21:55:07;9.30;70.60
9820;DHT22;4949;48.482;9.206;2023-03-25T22:00:13;9.40;70.50
9820;DHT22;4949;48.482;9.206;2023-03-25T22:05:16;9.40;69.50
9820;DHT22;4949;48.482;9.206;2023-03-25T22:10:17;9.30;69.80
9820;DHT22;4949;48.482;9.206;2023-03-25T22:15:17;9.30;68.80
9820;DHT22;4949;48.482;9.206;2023-03-25T22:20:18;9.50;69.30
9820;DHT22;4949;48.482;9.206;2023-03-25T22:25:21;9.40;69.00
9820;DHT22;4949;48.482;9.206;2023-03-25T22:30:22;9.50;69.30
9820;DHT22;4949;48.482;9.206;2023-03-25T22:35:23;9.50;69.90
9820;DHT22;4949;48.482;9.206;2023-03-25T22:40:27;9.30;70.10
9820;DHT22;4949;48.482;9.206;2023-03-25T22:45:31;9.30;69.90
9820;DHT22;4949;48.482;9.206;2023-03-25T22:50:34;9.30;70.40
9820;DHT22;4949;48.482;9.206;2023-03-25T22:55:35;9.30;70.50
9820;DHT22;4949;48.482;9.206;2023-03-25T23:00:37;9.20;70.30
9820;DHT22;4949;48.482;9.206;2023-03-25T23:05:40;9.30;69.10
9820;DHT22;4949;48.482;9.206;2023-03-25T23:10:42;9.20;69.40
9820;DHT22;4949;48.482;9.206;2023-03-25T23:15:43;9.10;69.30
9820;DHT22;4949;48.482;9.206;2023-03-25T23:20:47;9.20;69.20
9820;DHT22;4949;48.482;9.206;2023-03-25T23:26:04;9.20;68.80
9820;DHT22;4949;48.482;9.206;2023-03-25T23:31:09;9.20;68.30
9820;DHT22;4949;48.482;9.206;2023-03-25T23:36:16;9.20;68.50
9820;DHT22;4949;48.482;9.206;2023-03-25T23:41:20;9.20;68.20
9820;DHT22;4949;48.482;9.206;2023-03-25T23:46:23;9.10;68.70
9820;DHT22;4949;48.482;9.206;2023-03-25T23:51:33;9.30;69.70
9820;DHT22;4949;48.482;9.206;2023-03-25T23:56:36;9.20;68.50
